Terminal Aerodrome Forecast
Issued by NWS

Home | Current Version | Previous Version | Text Only | Print | Product List | Glossary On
Versions: 1 2 3 4 5 6 7 8 9 10 11 12 13 14 15 16 17 18 19 20 21 22 23 24 25 26 27 28 29 30 31 32 33 34 35 36 37 38 39 40 41
000
FTUS43 KDTX 271418 AAB
TAFYIP
TAF AMD
KYIP 271418Z 2714/2812 18011KT 5SM BR SCT015 OVC025
      TEMPO 2714/2715 1SM -SHRA BR BKN008 OVC015
     FM271700 20012KT 6SM BR BKN012 OVC025
     FM272200 20012G20KT 6SM -SHRA BKN015 OVC025
     FM280500 27011KT P6SM BKN020=

USA.gov is the U.S. government's official web portal to all federal, state and local government web resources and services.